Massey Lake, Texas
Current Conditions -  °F | °C
As of 1:35 PM on Thursday 27 Nov 2014 (Local Time) from KPSN Reporting Station
Clear Clear  
Wind Chill: 61°   Ceiling: Unl
Heat Index: 61°   Visibility: 7mi
Dew Point: 24°   Wind: 0mph
Humidity: 24%   Direction: NA
Pressure: 30.45"   Gusts: NA
Location:  31.8848°N, 95.9198°W
Report Text: KPSN 271935Z AUTO 00000KT 7SM CLR 16/M05 A3045 RMK AO2 T01601047
Loading
Personal Weather Stations






























Interactive Weather Map New forecast layout! Learn more

10-Day Weather Forecast

Advertisements
Track Severe Weather on mobile